sensor_id;sensor_type;location;lat;lon;timestamp;pressure;altitude;pressure_sealevel;temperature;humidity
46782;BME280;32541;46.298;11.506;2023-04-26T00:01:05;89142.19;;;1.81;68.50
46782;BME280;32541;46.298;11.506;2023-04-26T00:03:32;89153.72;;;1.74;69.11
46782;BME280;32541;46.298;11.506;2023-04-26T00:05:58;89150.69;;;1.85;68.87
46782;BME280;32541;46.298;11.506;2023-04-26T00:08:28;89153.81;;;1.89;67.39
46782;BME280;32541;46.298;11.506;2023-04-26T00:10:53;89153.22;;;1.83;67.18
46782;BME280;32541;46.298;11.506;2023-04-26T00:13:18;89144.34;;;1.75;67.77
46782;BME280;32541;46.298;11.506;2023-04-26T00:15:43;89151.50;;;1.65;70.07
46782;BME280;32541;46.298;11.506;2023-04-26T00:18:09;89158.66;;;1.55;70.20
46782;BME280;32541;46.298;11.506;2023-04-26T00:20:36;89151.56;;;1.44;70.13
46782;BME280;32541;46.298;11.506;2023-04-26T00:23:02;89151.81;;;1.54;69.19
46782;BME280;32541;46.298;11.506;2023-04-26T00:25:28;89138.06;;;1.52;69.12
46782;BME280;32541;46.298;11.506;2023-04-26T00:27:53;89137.47;;;1.46;69.29
46782;BME280;32541;46.298;11.506;2023-04-26T00:30:20;89144.94;;;1.53;69.70
46782;BME280;32541;46.298;11.506;2023-04-26T00:32:46;89159.88;;;1.46;68.95
46782;BME280;32541;46.298;11.506;2023-04-26T00:35:12;89153.94;;;1.48;69.05
46782;BME280;32541;46.298;11.506;2023-04-26T00:37:37;89154.69;;;1.56;68.24
46782;BME280;32541;46.298;11.506;2023-04-26T00:40:03;89157.50;;;1.43;69.08
46782;BME280;32541;46.298;11.506;2023-04-26T00:42:30;89168.25;;;1.28;71.32
46782;BME280;32541;46.298;11.506;2023-04-26T00:44:55;89164.38;;;1.16;70.64
46782;BME280;32541;46.298;11.506;2023-04-26T00:47:22;89173.09;;;1.22;69.54
46782;BME280;32541;46.298;11.506;2023-04-26T00:49:48;89169.44;;;1.19;69.38
46782;BME280;32541;46.298;11.506;2023-04-26T00:52:14;89167.25;;;1.18;68.72
46782;BME280;32541;46.298;11.506;2023-04-26T00:54:40;89175.31;;;1.10;71.32
46782;BME280;32541;46.298;11.506;2023-04-26T00:57:06;89165.34;;;1.05;71.62
46782;BME280;32541;46.298;11.506;2023-04-26T00:59:34;89174.22;;;1.05;71.45
46782;BME280;32541;46.298;11.506;2023-04-26T01:02:02;89169.53;;;1.06;71.28
46782;BME280;32541;46.298;11.506;2023-04-26T01:04:28;89169.53;;;1.06;71.39
46782;BME280;32541;46.298;11.506;2023-04-26T01:06:54;89173.75;;;1.15;71.56
46782;BME280;32541;46.298;11.506;2023-04-26T01:09:20;89178.44;;;1.14;71.51
46782;BME280;32541;46.298;11.506;2023-04-26T01:11:47;89179.16;;;1.15;70.69
46782;BME280;32541;46.298;11.506;2023-04-26T01:14:13;89178.38;;;1.06;70.40
46782;BME280;32541;46.298;11.506;2023-04-26T01:16:39;89175.06;;;1.21;69.30
46782;BME280;32541;46.298;11.506;2023-04-26T01:19:09;89181.47;;;1.10;71.02
46782;BME280;32541;46.298;11.506;2023-04-26T01:21:38;89190.44;;;1.05;70.79
46782;BME280;32541;46.298;11.506;2023-04-26T01:24:05;89203.00;;;0.95;72.50
46782;BME280;32541;46.298;11.506;2023-04-26T01:26:31;89195.09;;;0.97;72.64
46782;BME280;32541;46.298;11.506;2023-04-26T01:28:57;89189.91;;;0.86;70.27
46782;BME280;32541;46.298;11.506;2023-04-26T01:31:22;89191.47;;;0.95;70.13
46782;BME280;32541;46.298;11.506;2023-04-26T01:33:48;89191.38;;;0.87;71.01
46782;BME280;32541;46.298;11.506;2023-04-26T01:36:13;89185.56;;;0.83;70.58
46782;BME280;32541;46.298;11.506;2023-04-26T01:38:41;89194.22;;;0.82;70.85
46782;BME280;32541;46.298;11.506;2023-04-26T01:41:07;89188.66;;;0.87;70.27
46782;BME280;32541;46.298;11.506;2023-04-26T01:43:32;89189.53;;;0.82;71.65
46782;BME280;32541;46.298;11.506;2023-04-26T01:45:57;89196.00;;;0.79;71.48
46782;BME280;32541;46.298;11.506;2023-04-26T01:48:23;89185.19;;;0.79;72.08
46782;BME280;32541;46.298;11.506;2023-04-26T01:50:48;89185.19;;;0.79;71.84
46782;BME280;32541;46.298;11.506;2023-04-26T01:53:13;89180.81;;;0.76;72.42
46782;BME280;32541;46.298;11.506;2023-04-26T01:55:39;89180.28;;;0.78;72.13
46782;BME280;32541;46.298;11.506;2023-04-26T01:58:04;89181.56;;;0.77;71.92
46782;BME280;32541;46.298;11.506;2023-04-26T02:00:31;89191.56;;;0.69;72.35
46782;BME280;32541;46.298;11.506;2023-04-26T02:02:57;89189.41;;;0.67;72.18
46782;BME280;32541;46.298;11.506;2023-04-26T02:05:22;89181.56;;;0.77;71.45
46782;BME280;32541;46.298;11.506;2023-04-26T02:07:49;89188.75;;;0.74;71.65
46782;BME280;32541;46.298;11.506;2023-04-26T02:10:14;89183.97;;;0.67;72.02
46782;BME280;32541;46.298;11.506;2023-04-26T02:12:39;89184.72;;;0.68;71.62
46782;BME280;32541;46.298;11.506;2023-04-26T02:15:05;89191.66;;;0.76;72.01
46782;BME280;32541;46.298;11.506;2023-04-26T02:17:32;89192.69;;;0.73;71.79
46782;BME280;32541;46.298;11.506;2023-04-26T02:19:58;89200.03;;;0.86;70.78
46782;BME280;32541;46.298;11.506;2023-04-26T02:22:23;89195.59;;;0.75;70.31
46782;BME280;32541;46.298;11.506;2023-04-26T02:24:50;89193.44;;;0.74;70.73
46782;BME280;32541;46.298;11.506;2023-04-26T02:27:16;89208.94;;;0.73;70.87
46782;BME280;32541;46.298;11.506;2023-04-26T02:29:41;89203.13;;;0.69;70.78
46782;BME280;32541;46.298;11.506;2023-04-26T02:32:07;89199.69;;;0.69;71.22
46782;BME280;32541;46.298;11.506;2023-04-26T02:34:32;89200.13;;;0.60;71.15
46782;BME280;32541;46.298;11.506;2023-04-26T02:36:58;89199.41;;;0.59;71.42
46782;BME280;32541;46.298;11.506;2023-04-26T02:39:23;89202.63;;;0.57;71.56
46782;BME280;32541;46.298;11.506;2023-04-26T02:41:49;89204.84;;;0.59;72.40
46782;BME280;32541;46.298;11.506;2023-04-26T02:44:15;89204.09;;;0.59;71.90
46782;BME280;32541;46.298;11.506;2023-04-26T02:46:40;89201.91;;;0.57;71.92
46782;BME280;32541;46.298;11.506;2023-04-26T02:49:06;89209.75;;;0.47;71.21
46782;BME280;32541;46.298;11.506;2023-04-26T02:51:31;89208.31;;;0.46;72.33
46782;BME280;32541;46.298;11.506;2023-04-26T02:53:57;89207.88;;;0.42;71.85
46782;BME280;32541;46.298;11.506;2023-04-26T02:56:23;89202.56;;;0.50;71.17
46782;BME280;32541;46.298;11.506;2023-04-26T02:58:48;89202.78;;;0.39;71.98
46782;BME280;32541;46.298;11.506;2023-04-26T03:01:14;89201.38;;;0.38;71.87
46782;BME280;32541;46.298;11.506;2023-04-26T03:03:39;89201.69;;;0.34;71.99
46782;BME280;32541;46.298;11.506;2023-04-26T03:06:05;89202.09;;;0.38;72.06
46782;BME280;32541;46.298;11.506;2023-04-26T03:08:31;89207.31;;;0.57;69.85
46782;BME280;32541;46.298;11.506;2023-04-26T03:10:59;89209.03;;;0.47;70.40
46782;BME280;32541;46.298;11.506;2023-04-26T03:13:24;89211.34;;;0.30;73.00
46782;BME280;32541;46.298;11.506;2023-04-26T03:15:50;89203.47;;;0.19;73.80
46782;BME280;32541;46.298;11.506;2023-04-26T03:18:17;89204.41;;;0.21;73.90
46782;BME280;32541;46.298;11.506;2023-04-26T03:20:44;89203.59;;;0.13;74.84
46782;BME280;32541;46.298;11.506;2023-04-26T03:23:09;89208.28;;;0.13;73.90
46782;BME280;32541;46.298;11.506;2023-04-26T03:25:35;89208.28;;;0.13;74.28
46782;BME280;32541;46.298;11.506;2023-04-26T03:28:00;89205.25;;;0.16;73.66
46782;BME280;32541;46.298;11.506;2023-04-26T03:30:26;89204.53;;;0.16;73.44
46782;BME280;32541;46.298;11.506;2023-04-26T03:32:51;89205.06;;;0.14;73.77
46782;BME280;32541;46.298;11.506;2023-04-26T03:35:17;89202.13;;;0.12;73.22
46782;BME280;32541;46.298;11.506;2023-04-26T03:37:43;89204.13;;;0.12;72.82
46782;BME280;32541;46.298;11.506;2023-04-26T03:40:09;89198.94;;;0.14;72.91
46782;BME280;32541;46.298;11.506;2023-04-26T03:42:35;89195.69;;;0.15;72.93
46782;BME280;32541;46.298;11.506;2023-04-26T03:45:01;89210.66;;;0.16;73.11
46782;BME280;32541;46.298;11.506;2023-04-26T03:47:28;89211.59;;;0.19;72.74
46782;BME280;32541;46.298;11.506;2023-04-26T03:49:54;89214.59;;;0.15;73.80
46782;BME280;32541;46.298;11.506;2023-04-26T03:52:19;89208.59;;;0.09;73.37
46782;BME280;32541;46.298;11.506;2023-04-26T03:54:45;89208.94;;;0.06;72.60
46782;BME280;32541;46.298;11.506;2023-04-26T03:57:10;89209.56;;;-0.02;72.65
46782;BME280;32541;46.298;11.506;2023-04-26T03:59:35;89206.00;;;0.04;72.67
46782;BME280;32541;46.298;11.506;2023-04-26T04:02:01;89212.94;;;0.12;72.28
46782;BME280;32541;46.298;11.506;2023-04-26T04:04:27;89212.34;;;0.06;73.62
46782;BME280;32541;46.298;11.506;2023-04-26T04:06:52;89217.13;;;0.13;73.37
46782;BME280;32541;46.298;11.506;2023-04-26T04:09:17;89216.91;;;0.11;73.36
46782;BME280;32541;46.298;11.506;2023-04-26T04:11:43;89218.59;;;0.01;73.37
46782;BME280;32541;46.298;11.506;2023-04-26T04:14:08;89222.44;;;0.06;73.36
46782;BME280;32541;46.298;11.506;2023-04-26T04:16:34;89215.16;;;0.00;74.19
46782;BME280;32541;46.298;11.506;2023-04-26T04:18:59;89214.53;;;-0.06;74.46
46782;BME280;32541;46.298;11.506;2023-04-26T04:21:24;89225.34;;;-0.06;73.74
46782;BME280;32541;46.298;11.506;2023-04-26T04:23:51;89210.19;;;-0.09;73.62
46782;BME280;32541;46.298;11.506;2023-04-26T04:26:17;89220.38;;;-0.02;73.23
46782;BME280;32541;46.298;11.506;2023-04-26T04:28:43;89209.13;;;-0.06;74.51
46782;BME280;32541;46.298;11.506;2023-04-26T04:31:11;89213.91;;;-0.12;73.75
46782;BME280;32541;46.298;11.506;2023-04-26T04:33:37;89216.19;;;-0.03;73.40
46782;BME280;32541;46.298;11.506;2023-04-26T04:36:03;89217.84;;;0.00;72.89
46782;BME280;32541;46.298;11.506;2023-04-26T04:38:28;89209.13;;;-0.06;73.34
46782;BME280;32541;46.298;11.506;2023-04-26T04:40:55;89205.81;;;0.02;72.77
46782;BME280;32541;46.298;11.506;2023-04-26T04:43:21;89210.69;;;0.03;73.19
46782;BME280;32541;46.298;11.506;2023-04-26T04:45:47;89219.41;;;0.09;73.82
46782;BME280;32541;46.298;11.506;2023-04-26T04:48:13;89220.97;;;0.18;73.58
46782;BME280;32541;46.298;11.506;2023-04-26T04:50:39;89228.53;;;0.19;73.48
46782;BME280;32541;46.298;11.506;2023-04-26T04:53:06;89226.88;;;0.16;72.87
46782;BME280;32541;46.298;11.506;2023-04-26T04:55:33;89222.63;;;0.08;72.74
46782;BME280;32541;46.298;11.506;2023-04-26T04:57:58;89231.06;;;0.04;72.93
46782;BME280;32541;46.298;11.506;2023-04-26T05:00:23;89229.41;;;0.01;73.24
46782;BME280;32541;46.298;11.506;2023-04-26T05:02:49;89233.88;;;-0.02;73.46
46782;BME280;32541;46.298;11.506;2023-04-26T05:05:14;89233.03;;;0.04;73.66
46782;BME280;32541;46.298;11.506;2023-04-26T05:07:40;89240.50;;;0.11;73.30
46782;BME280;32541;46.298;11.506;2023-04-26T05:10:07;89241.75;;;0.10;73.74
46782;BME280;32541;46.298;11.506;2023-04-26T05:12:32;89245.19;;;0.10;73.78
46782;BME280;32541;46.298;11.506;2023-04-26T05:14:59;89243.41;;;0.13;74.11
46782;BME280;32541;46.298;11.506;2023-04-26T05:17:24;89248.31;;;0.14;75.10
46782;BME280;32541;46.298;11.506;2023-04-26T05:19:50;89250.09;;;0.12;75.69
46782;BME280;32541;46.298;11.506;2023-04-26T05:22:15;89246.22;;;0.07;76.10
46782;BME280;32541;46.298;11.506;2023-04-26T05:24:44;89248.63;;;0.11;75.59
46782;BME280;32541;46.298;11.506;2023-04-26T05:27:10;89254.13;;;0.18;75.94
46782;BME280;32541;46.298;11.506;2023-04-26T05:29:36;89258.81;;;0.18;75.46
46782;BME280;32541;46.298;11.506;2023-04-26T05:32:01;89260.06;;;0.17;75.64
46782;BME280;32541;46.298;11.506;2023-04-26T05:34:27;89250.47;;;0.16;74.50
46782;BME280;32541;46.298;11.506;2023-04-26T05:36:52;89271.06;;;0.19;74.86
46782;BME280;32541;46.298;11.506;2023-04-26T05:39:17;89268.91;;;0.17;74.72
46782;BME280;32541;46.298;11.506;2023-04-26T05:41:46;89259.22;;;0.22;74.78
46782;BME280;32541;46.298;11.506;2023-04-26T05:44:12;89266.06;;;0.23;75.13
46782;BME280;32541;46.298;11.506;2023-04-26T05:46:38;89269.91;;;0.27;75.31
46782;BME280;32541;46.298;11.506;2023-04-26T05:49:03;89271.06;;;0.32;74.42
46782;BME280;32541;46.298;11.506;2023-04-26T05:51:29;89271.66;;;0.38;74.90
46782;BME280;32541;46.298;11.506;2023-04-26T05:53:54;89279.78;;;0.38;75.05
46782;BME280;32541;46.298;11.506;2023-04-26T05:56:21;89270.63;;;0.41;75.18
46782;BME280;32541;46.298;11.506;2023-04-26T05:58:48;89271.13;;;0.39;75.39
46782;BME280;32541;46.298;11.506;2023-04-26T06:01:13;89276.97;;;0.43;75.33
46782;BME280;32541;46.298;11.506;2023-04-26T06:03:39;89272.47;;;0.46;74.37
46782;BME280;32541;46.298;11.506;2023-04-26T06:06:04;89274.34;;;0.51;72.92
46782;BME280;32541;46.298;11.506;2023-04-26T06:08:30;89277.66;;;0.57;74.11
46782;BME280;32541;46.298;11.506;2023-04-26T06:10:55;89281.63;;;0.56;74.13
46782;BME280;32541;46.298;11.506;2023-04-26T06:13:21;89282.88;;;0.55;73.83
46782;BME280;32541;46.298;11.506;2023-04-26T06:15:46;89281.38;;;0.67;73.46
46782;BME280;32541;46.298;11.506;2023-04-26T06:18:12;89280.97;;;0.63;74.02
46782;BME280;32541;46.298;11.506;2023-04-26T06:20:37;89271.81;;;0.66;74.05
46782;BME280;32541;46.298;11.506;2023-04-26T06:23:03;89277.81;;;0.72;74.30
46782;BME280;32541;46.298;11.506;2023-04-26T06:25:28;89276.66;;;0.81;73.95
46782;BME280;32541;46.298;11.506;2023-04-26T06:27:54;89278.59;;;0.93;73.55
46782;BME280;32541;46.298;11.506;2023-04-26T06:30:19;89270.34;;;0.99;73.48
46782;BME280;32541;46.298;11.506;2023-04-26T06:32:45;89281.97;;;1.07;73.29
46782;BME280;32541;46.298;11.506;2023-04-26T06:35:11;89276.38;;;1.26;73.22
46782;BME280;32541;46.298;11.506;2023-04-26T06:37:36;89273.34;;;1.29;72.33
46782;BME280;32541;46.298;11.506;2023-04-26T06:40:03;89282.38;;;1.32;71.92
46782;BME280;32541;46.298;11.506;2023-04-26T06:42:28;89279.81;;;1.47;71.76
46782;BME280;32541;46.298;11.506;2023-04-26T06:44:54;89275.88;;;1.76;71.39
46782;BME280;32541;46.298;11.506;2023-04-26T06:47:19;89269.16;;;1.98;70.86
46782;BME280;32541;46.298;11.506;2023-04-26T06:49:45;89268.91;;;2.16;70.12
46782;BME280;32541;46.298;11.506;2023-04-26T06:52:10;89271.75;;;2.47;70.95
46782;BME280;32541;46.298;11.506;2023-04-26T06:54:36;89275.66;;;2.66;70.82
46782;BME280;32541;46.298;11.506;2023-04-26T06:57:01;89275.72;;;2.89;69.44
46782;BME280;32541;46.298;11.506;2023-04-26T06:59:26;89280.00;;;3.20;68.24
46782;BME280;32541;46.298;11.506;2023-04-26T07:01:52;89275.53;;;3.53;68.63
46782;BME280;32541;46.298;11.506;2023-04-26T07:04:18;89279.50;;;3.90;67.40
46782;BME280;32541;46.298;11.506;2023-04-26T07:06:45;89270.59;;;4.27;63.46
46782;BME280;32541;46.298;11.506;2023-04-26T07:09:10;89273.06;;;4.56;61.68
46782;BME280;32541;46.298;11.506;2023-04-26T07:11:36;89274.44;;;4.87;61.48
46782;BME280;32541;46.298;11.506;2023-04-26T07:14:03;89266.81;;;5.25;60.91
46782;BME280;32541;46.298;11.506;2023-04-26T07:16:29;89264.22;;;5.59;61.01
46782;BME280;32541;46.298;11.506;2023-04-26T07:18:54;89269.28;;;5.95;57.35
46782;BME280;32541;46.298;11.506;2023-04-26T07:21:22;89259.16;;;6.30;59.56
46782;BME280;32541;46.298;11.506;2023-04-26T07:23:48;89261.97;;;6.57;56.63
46782;BME280;32541;46.298;11.506;2023-04-26T07:26:17;89259.34;;;6.84;56.21
46782;BME280;32541;46.298;11.506;2023-04-26T07:28:42;89257.50;;;7.03;53.50
46782;BME280;32541;46.298;11.506;2023-04-26T07:31:07;89255.81;;;7.35;51.55
46782;BME280;32541;46.298;11.506;2023-04-26T07:33:33;89248.22;;;7.69;49.47
46782;BME280;32541;46.298;11.506;2023-04-26T07:35:58;89247.22;;;8.11;51.71
46782;BME280;32541;46.298;11.506;2023-04-26T07:38:25;89246.78;;;8.41;50.08
46782;BME280;32541;46.298;11.506;2023-04-26T07:40:51;89252.34;;;8.24;50.11
46782;BME280;32541;46.298;11.506;2023-04-26T07:43:18;89242.41;;;8.28;48.08
46782;BME280;32541;46.298;11.506;2023-04-26T07:45:43;89250.25;;;8.42;47.23
46782;BME280;32541;46.298;11.506;2023-04-26T07:48:09;89250.84;;;8.59;47.27
46782;BME280;32541;46.298;11.506;2023-04-26T07:50:34;89244.06;;;8.51;45.52
46782;BME280;32541;46.298;11.506;2023-04-26T07:53:00;89245.22;;;8.57;44.46
46782;BME280;32541;46.298;11.506;2023-04-26T07:55:25;89242.94;;;8.63;46.79
46782;BME280;32541;46.298;11.506;2023-04-26T07:57:51;89241.47;;;8.62;46.02
46782;BME280;32541;46.298;11.506;2023-04-26T08:00:17;89244.69;;;8.97;46.46
46782;BME280;32541;46.298;11.506;2023-04-26T08:02:43;89242.50;;;9.24;46.31
46782;BME280;32541;46.298;11.506;2023-04-26T08:05:11;89241.31;;;9.56;45.08
46782;BME280;32541;46.298;11.506;2023-04-26T08:07:37;89238.97;;;9.72;43.83
46782;BME280;32541;46.298;11.506;2023-04-26T08:10:02;89236.81;;;10.20;43.81
46782;BME280;32541;46.298;11.506;2023-04-26T08:12:27;89230.47;;;10.70;42.44
46782;BME280;32541;46.298;11.506;2023-04-26T08:14:53;89226.59;;;11.05;42.02
46782;BME280;32541;46.298;11.506;2023-04-26T08:17:18;89221.81;;;11.06;41.37
46782;BME280;32541;46.298;11.506;2023-04-26T08:19:43;89225.84;;;11.26;40.22
46782;BME280;32541;46.298;11.506;2023-04-26T08:22:09;89225.69;;;11.12;43.29
46782;BME280;32541;46.298;11.506;2023-04-26T08:24:34;89222.53;;;10.64;42.45
46782;BME280;32541;46.298;11.506;2023-04-26T08:27:00;89231.34;;;9.51;39.12
46782;BME280;32541;46.298;11.506;2023-04-26T08:29:25;89243.38;;;9.36;37.21
46782;BME280;32541;46.298;11.506;2023-04-26T08:31:51;89228.16;;;9.64;39.40
46782;BME280;32541;46.298;11.506;2023-04-26T08:34:17;89222.53;;;10.02;38.03
46782;BME280;32541;46.298;11.506;2023-04-26T08:36:42;89216.44;;;10.14;37.16
46782;BME280;32541;46.298;11.506;2023-04-26T08:39:08;89220.41;;;10.63;38.13
46782;BME280;32541;46.298;11.506;2023-04-26T08:41:42;89211.59;;;11.18;39.77
46782;BME280;32541;46.298;11.506;2023-04-26T08:44:08;89210.09;;;11.38;40.39
46782;BME280;32541;46.298;11.506;2023-04-26T08:49:44;89219.03;;;12.04;35.87
46782;BME280;32541;46.298;11.506;2023-04-26T08:52:13;89218.88;;;11.46;36.55
46782;BME280;32541;46.298;11.506;2023-04-26T08:54:43;89221.19;;;11.29;36.94
46782;BME280;32541;46.298;11.506;2023-04-26T08:57:10;89219.88;;;10.97;34.67
46782;BME280;32541;46.298;11.506;2023-04-26T08:59:36;89220.63;;;10.45;36.84
46782;BME280;32541;46.298;11.506;2023-04-26T09:02:04;89217.50;;;10.82;36.54
46782;BME280;32541;46.298;11.506;2023-04-26T09:04:30;89216.75;;;11.24;39.31
46782;BME280;32541;46.298;11.506;2023-04-26T09:07:00;89214.03;;;11.68;36.84
46782;BME280;32541;46.298;11.506;2023-04-26T09:09:27;89212.88;;;11.71;34.55
46782;BME280;32541;46.298;11.506;2023-04-26T09:11:57;89213.03;;;11.52;36.53
46782;BME280;32541;46.298;11.506;2023-04-26T09:14:24;89209.41;;;11.82;36.40
46782;BME280;32541;46.298;11.506;2023-04-26T09:16:50;89213.38;;;11.46;35.01
46782;BME280;32541;46.298;11.506;2023-04-26T09:19:16;89209.97;;;11.69;35.99
46782;BME280;32541;46.298;11.506;2023-04-26T09:21:43;89211.72;;;12.09;37.51
46782;BME280;32541;46.298;11.506;2023-04-26T09:24:10;89208.50;;;12.36;33.25
46782;BME280;32541;46.298;11.506;2023-04-26T09:26:35;89206.13;;;12.65;34.15
46782;BME280;32541;46.298;11.506;2023-04-26T09:29:30;89199.91;;;13.01;34.66
46782;BME280;32541;46.298;11.506;2023-04-26T09:31:55;89197.06;;;13.11;34.04
46782;BME280;32541;46.298;11.506;2023-04-26T09:34:22;89193.28;;;13.29;36.72
46782;BME280;32541;46.298;11.506;2023-04-26T09:36:53;89195.88;;;13.64;35.23
46782;BME280;32541;46.298;11.506;2023-04-26T09:39:35;89190.41;;;13.78;34.27
46782;BME280;32541;46.298;11.506;2023-04-26T09:42:03;89200.09;;;12.68;31.12
46782;BME280;32541;46.298;11.506;2023-04-26T09:44:29;89196.69;;;13.05;31.60
46782;BME280;32541;46.298;11.506;2023-04-26T09:52:08;89196.91;;;13.20;34.21
46782;BME280;32541;46.298;11.506;2023-04-26T09:54:53;89184.78;;;12.07;31.76
46782;BME280;32541;46.298;11.506;2023-04-26T09:57:20;89178.66;;;12.67;32.04
46782;BME280;32541;46.298;11.506;2023-04-26T09:59:47;89181.03;;;13.32;32.46
46782;BME280;32541;46.298;11.506;2023-04-26T10:02:24;89182.22;;;13.29;28.45
46782;BME280;32541;46.298;11.506;2023-04-26T10:04:52;89181.59;;;13.68;30.66
46782;BME280;32541;46.298;11.506;2023-04-26T10:07:20;89174.38;;;13.12;29.43
46782;BME280;32541;46.298;11.506;2023-04-26T10:09:45;89176.03;;;13.17;28.75
46782;BME280;32541;46.298;11.506;2023-04-26T10:12:12;89170.63;;;12.48;28.42
46782;BME280;32541;46.298;11.506;2023-04-26T10:14:38;89176.25;;;12.03;29.10
46782;BME280;32541;46.298;11.506;2023-04-26T10:17:04;89172.72;;;11.68;28.12
46782;BME280;32541;46.298;11.506;2023-04-26T10:19:34;89176.13;;;11.34;28.31
46782;BME280;32541;46.298;11.506;2023-04-26T10:22:05;89174.66;;;11.33;28.71
46782;BME280;32541;46.298;11.506;2023-04-26T10:24:33;89171.59;;;11.50;28.69
46782;BME280;32541;46.298;11.506;2023-04-26T10:26:59;89167.38;;;11.37;30.11
46782;BME280;32541;46.298;11.506;2023-04-26T10:32:18;89157.69;;;12.62;32.57
46782;BME280;32541;46.298;11.506;2023-04-26T10:34:44;89157.28;;;13.16;35.57
46782;BME280;32541;46.298;11.506;2023-04-26T10:37:29;89154.63;;;13.29;28.14
46782;BME280;32541;46.298;11.506;2023-04-26T10:40:24;89163.94;;;12.04;27.32
46782;BME280;32541;46.298;11.506;2023-04-26T10:42:50;89160.56;;;11.94;28.10
46782;BME280;32541;46.298;11.506;2023-04-26T10:45:34;89153.13;;;11.85;30.81
46782;BME280;32541;46.298;11.506;2023-04-26T10:56:09;89131.09;;;11.97;29.36
46782;BME280;32541;46.298;11.506;2023-04-26T10:58:40;89149.16;;;11.77;30.60
46782;BME280;32541;46.298;11.506;2023-04-26T11:03:32;89131.81;;;12.09;28.35
46782;BME280;32541;46.298;11.506;2023-04-26T11:05:58;89134.34;;;12.28;28.24
46782;BME280;32541;46.298;11.506;2023-04-26T11:08:28;89119.13;;;12.75;29.91
46782;BME280;32541;46.298;11.506;2023-04-26T11:10:57;89125.09;;;13.46;33.55
46782;BME280;32541;46.298;11.506;2023-04-26T11:13:23;89110.88;;;13.38;29.03
46782;BME280;32541;46.298;11.506;2023-04-26T11:15:59;89113.13;;;13.16;29.77
46782;BME280;32541;46.298;11.506;2023-04-26T11:18:28;89107.38;;;13.62;30.62
46782;BME280;32541;46.298;11.506;2023-04-26T11:20:55;89102.50;;;13.35;31.03
46782;BME280;32541;46.298;11.506;2023-04-26T11:23:22;89110.72;;;12.13;31.32
46782;BME280;32541;46.298;11.506;2023-04-26T11:25:47;89106.41;;;12.22;32.37
46782;BME280;32541;46.298;11.506;2023-04-26T11:28:13;89097.66;;;12.25;31.89
46782;BME280;32541;46.298;11.506;2023-04-26T11:30:38;89095.63;;;12.26;30.40
46782;BME280;32541;46.298;11.506;2023-04-26T11:33:04;89094.63;;;12.33;31.23
46782;BME280;32541;46.298;11.506;2023-04-26T11:35:33;89098.41;;;12.63;32.78
46782;BME280;32541;46.298;11.506;2023-04-26T11:37:59;89113.72;;;12.29;30.69
46782;BME280;32541;46.298;11.506;2023-04-26T11:40:29;89107.09;;;12.46;29.89
46782;BME280;32541;46.298;11.506;2023-04-26T11:43:03;89115.88;;;12.07;26.95
46782;BME280;32541;46.298;11.506;2023-04-26T11:45:31;89103.66;;;12.22;29.68
46782;BME280;32541;46.298;11.506;2023-04-26T11:47:57;89108.69;;;12.25;29.97
46782;BME280;32541;46.298;11.506;2023-04-26T11:50:24;89131.34;;;12.01;31.51
46782;BME280;32541;46.298;11.506;2023-04-26T11:52:53;89109.41;;;12.38;32.45
46782;BME280;32541;46.298;11.506;2023-04-26T11:55:22;89104.88;;;12.67;31.89
46782;BME280;32541;46.298;11.506;2023-04-26T11:57:49;89110.09;;;13.23;30.92
46782;BME280;32541;46.298;11.506;2023-04-26T12:00:14;89090.13;;;13.11;32.58
46782;BME280;32541;46.298;11.506;2023-04-26T12:02:44;89086.84;;;13.79;32.00
46782;BME280;32541;46.298;11.506;2023-04-26T12:05:19;89094.84;;;13.22;28.81
46782;BME280;32541;46.298;11.506;2023-04-26T12:07:48;89090.13;;;13.00;29.08
46782;BME280;32541;46.298;11.506;2023-04-26T12:10:19;89082.59;;;13.00;29.09
46782;BME280;32541;46.298;11.506;2023-04-26T12:12:52;89083.31;;;12.89;28.68
46782;BME280;32541;46.298;11.506;2023-04-26T12:15:21;89082.44;;;12.98;26.73
46782;BME280;32541;46.298;11.506;2023-04-26T12:17:51;89087.56;;;12.78;28.17
46782;BME280;32541;46.298;11.506;2023-04-26T12:20:17;89089.72;;;12.80;29.03
46782;BME280;32541;46.298;11.506;2023-04-26T12:25:28;89076.50;;;12.90;32.00
46782;BME280;32541;46.298;11.506;2023-04-26T12:27:54;89086.56;;;12.97;29.69
46782;BME280;32541;46.298;11.506;2023-04-26T12:30:19;89074.06;;;13.47;31.37
46782;BME280;32541;46.298;11.506;2023-04-26T12:32:46;89066.44;;;13.59;29.75
46782;BME280;32541;46.298;11.506;2023-04-26T12:35:11;89066.19;;;13.16;31.00
46782;BME280;32541;46.298;11.506;2023-04-26T12:37:37;89074.19;;;12.98;30.62
46782;BME280;32541;46.298;11.506;2023-04-26T12:40:02;89073.69;;;13.02;29.50
46782;BME280;32541;46.298;11.506;2023-04-26T12:42:27;89074.50;;;13.04;30.24
46782;BME280;32541;46.298;11.506;2023-04-26T12:44:53;89087.19;;;13.21;30.76
46782;BME280;32541;46.298;11.506;2023-04-26T12:47:19;89059.53;;;13.32;32.60
46782;BME280;32541;46.298;11.506;2023-04-26T12:49:44;89077.25;;;13.55;30.51
46782;BME280;32541;46.298;11.506;2023-04-26T12:52:10;89070.13;;;13.63;32.16
46782;BME280;32541;46.298;11.506;2023-04-26T12:54:35;89082.38;;;13.47;31.15
46782;BME280;32541;46.298;11.506;2023-04-26T12:57:00;89072.34;;;13.92;32.36
46782;BME280;32541;46.298;11.506;2023-04-26T12:59:26;89071.22;;;13.45;30.03
46782;BME280;32541;46.298;11.506;2023-04-26T13:01:51;89078.81;;;13.07;29.18
46782;BME280;32541;46.298;11.506;2023-04-26T13:04:16;89078.78;;;13.19;30.60
46782;BME280;32541;46.298;11.506;2023-04-26T13:06:42;89077.72;;;13.38;30.83
46782;BME280;32541;46.298;11.506;2023-04-26T13:09:07;89073.84;;;13.43;30.29
46782;BME280;32541;46.298;11.506;2023-04-26T13:11:33;89075.84;;;13.28;30.33
46782;BME280;32541;46.298;11.506;2023-04-26T13:13:58;89060.03;;;13.43;30.93
46782;BME280;32541;46.298;11.506;2023-04-26T13:16:24;89067.03;;;13.57;31.81